createdAt,value
2017-07-09T00:00:50.574Z,86.40
2017-07-09T00:03:18.076Z,85.69
2017-07-09T00:05:45.577Z,86.99
2017-07-09T00:08:13.077Z,86.50
2017-07-09T00:10:40.548Z,87.23
2017-07-09T00:13:08.196Z,88.05
2017-07-09T00:15:35.676Z,88.30
2017-07-09T00:18:03.149Z,87.82
2017-07-09T00:20:30.653Z,88.14
2017-07-09T00:22:58.140Z,88.21
2017-07-09T00:25:26.061Z,88.17
2017-07-09T00:27:53.534Z,88.24
2017-07-09T00:30:21.022Z,87.99
2017-07-09T00:32:48.520Z,87.97
2017-07-09T00:35:16.008Z,88.53
2017-07-09T00:37:43.511Z,88.67
2017-07-09T00:40:10.983Z,86.69
2017-07-09T00:42:38.485Z,87.39
2017-07-09T00:45:05.985Z,87.37
2017-07-09T00:47:33.463Z,88.42
2017-07-09T00:50:00.967Z,87.50
2017-07-09T00:52:28.441Z,87.84
2017-07-09T00:54:55.940Z,87.77
2017-07-09T00:57:23.421Z,88.13
2017-07-09T00:59:51.109Z,87.83
2017-07-09T01:02:18.593Z,87.54
2017-07-09T01:04:46.069Z,86.73
2017-07-09T01:07:13.722Z,87.21
2017-07-09T01:09:41.202Z,87.65
2017-07-09T01:12:08.677Z,87.24
2017-07-09T01:14:36.177Z,86.12
2017-07-09T01:17:03.690Z,86.53
2017-07-09T01:19:31.160Z,87.18
2017-07-09T01:21:58.644Z,86.77
2017-07-09T01:24:26.157Z,87.85
2017-07-09T01:26:53.650Z,88.35
2017-07-09T01:29:21.128Z,88.52
2017-07-09T01:31:48.650Z,88.28
2017-07-09T01:34:16.132Z,87.87
2017-07-09T01:36:43.613Z,88.83
2017-07-09T01:39:11.124Z,88.45
2017-07-09T01:41:38.611Z,86.91
2017-07-09T01:44:06.108Z,87.25
2017-07-09T01:46:33.603Z,88.33
2017-07-09T01:49:01.095Z,88.55
2017-07-09T01:51:28.599Z,89.26
2017-07-09T01:53:56.102Z,89.98
2017-07-09T01:56:23.582Z,90.41
2017-07-09T01:58:51.042Z,90.12
2017-07-09T02:01:18.522Z,89.12
2017-07-09T02:03:45.985Z,88.45
2017-07-09T02:06:13.477Z,89.49
2017-07-09T02:08:40.963Z,88.39
2017-07-09T02:11:08.422Z,88.69
2017-07-09T02:13:36.132Z,87.91
2017-07-09T02:16:03.615Z,88.71
2017-07-09T02:18:31.075Z,90.44
2017-07-09T02:20:58.560Z,90.01
2017-07-09T02:23:26.047Z,88.51
2017-07-09T02:25:53.542Z,89.80
2017-07-09T02:28:21.007Z,90.32
2017-07-09T02:30:48.469Z,89.83
2017-07-09T02:33:15.955Z,90.90
2017-07-09T02:35:43.448Z,90.12
2017-07-09T02:38:10.910Z,89.72
2017-07-09T02:40:38.391Z,89.69
2017-07-09T02:43:05.836Z,90.26
2017-07-09T02:45:33.350Z,91.79
2017-07-09T02:48:00.818Z,91.79
2017-07-09T02:50:28.310Z,91.28
2017-07-09T02:52:55.778Z,91.52
2017-07-09T02:55:23.257Z,91.76
2017-07-09T02:57:50.743Z,91.44
2017-07-09T03:00:18.217Z,90.82
2017-07-09T03:02:45.742Z,90.61
2017-07-09T03:05:13.239Z,91.32
2017-07-09T03:07:40.701Z,91.50
2017-07-09T03:10:08.159Z,90.95
2017-07-09T03:12:35.641Z,90.94
2017-07-09T03:15:03.094Z,90.84
2017-07-09T03:17:30.703Z,91.96
2017-07-09T03:19:58.167Z,91.84
2017-07-09T03:22:25.629Z,91.75
2017-07-09T03:24:53.123Z,92.95
2017-07-09T03:27:20.609Z,92.71
2017-07-09T03:29:48.074Z,92.14
2017-07-09T03:32:15.550Z,91.80
2017-07-09T03:34:43.031Z,91.25
2017-07-09T03:37:10.508Z,90.77
2017-07-09T03:39:37.985Z,90.72
2017-07-09T03:42:05.449Z,90.22
2017-07-09T03:44:32.936Z,90.80
2017-07-09T03:47:00.399Z,89.42
2017-07-09T03:49:28.294Z,88.41
2017-07-09T03:51:55.762Z,88.66
2017-07-09T03:54:23.222Z,88.25
2017-07-09T03:56:50.697Z,89.98
2017-07-09T03:59:18.164Z,89.96
2017-07-09T04:01:45.902Z,90.08
2017-07-09T04:04:13.366Z,89.98
2017-07-09T04:06:40.836Z,89.86
2017-07-09T04:09:08.326Z,89.28
2017-07-09T04:11:35.797Z,89.18
2017-07-09T04:14:03.282Z,89.27
2017-07-09T04:16:30.746Z,88.59
2017-07-09T04:18:58.425Z,88.65
2017-07-09T04:21:25.891Z,88.45
2017-07-09T04:23:53.357Z,88.17
2017-07-09T04:26:20.856Z,88.53
2017-07-09T04:28:48.346Z,88.64
2017-07-09T04:31:15.806Z,88.11
2017-07-09T04:33:43.292Z,86.54
2017-07-09T04:36:10.774Z,87.50
2017-07-09T04:38:38.244Z,88.35
2017-07-09T04:41:05.761Z,87.38
2017-07-09T04:43:33.220Z,88.37
2017-07-09T04:46:00.673Z,87.49
2017-07-09T04:48:28.155Z,87.31
2017-07-09T04:50:55.654Z,87.44
2017-07-09T04:53:23.115Z,87.49
2017-07-09T04:55:50.611Z,87.12
2017-07-09T04:58:18.077Z,86.50
2017-07-09T05:00:45.557Z,87.11
2017-07-09T05:03:13.018Z,87.05
2017-07-09T05:05:40.518Z,85.73
2017-07-09T05:08:07.999Z,85.22
2017-07-09T05:10:35.491Z,84.18
2017-07-09T05:13:02.981Z,84.45
2017-07-09T05:15:30.459Z,83.62
2017-07-09T05:17:57.954Z,83.19
2017-07-09T05:20:25.419Z,83.19
2017-07-09T05:22:52.914Z,83.23
2017-07-09T05:25:20.371Z,82.76
2017-07-09T05:27:47.834Z,82.72
2017-07-09T05:30:15.328Z,81.38
2017-07-09T05:32:42.844Z,82.02
2017-07-09T05:35:10.316Z,82.02
2017-07-09T05:37:38.076Z,80.21
2017-07-09T05:40:05.570Z,79.68
2017-07-09T05:42:33.029Z,78.20
2017-07-09T05:45:00.528Z,78.50
2017-07-09T05:47:27.990Z,77.79
2017-07-09T05:49:55.469Z,76.02
2017-07-09T05:52:22.930Z,76.04
2017-07-09T05:54:50.421Z,74.92
2017-07-09T05:57:17.886Z,74.03
2017-07-09T05:59:45.379Z,73.12
2017-07-09T06:02:12.848Z,72.84
2017-07-09T06:04:40.338Z,72.85
2017-07-09T06:07:07.798Z,73.36
2017-07-09T06:09:35.294Z,72.95
2017-07-09T06:12:02.775Z,73.04
2017-07-09T06:14:30.254Z,71.33
2017-07-09T06:16:57.737Z,70.23
2017-07-09T06:19:25.199Z,69.56
2017-07-09T06:21:52.707Z,69.44
2017-07-09T06:24:20.167Z,71.61
2017-07-09T06:26:47.646Z,71.31
2017-07-09T06:29:15.126Z,71.92
2017-07-09T06:31:42.597Z,72.22
2017-07-09T06:34:10.111Z,69.01
2017-07-09T06:36:37.576Z,69.60
2017-07-09T06:39:05.043Z,71.05
2017-07-09T06:41:32.526Z,71.00
2017-07-09T06:43:59.998Z,68.58
2017-07-09T06:46:27.494Z,68.59
2017-07-09T06:48:54.955Z,67.96
2017-07-09T06:51:22.455Z,68.90
2017-07-09T06:53:49.919Z,67.80
2017-07-09T06:56:17.400Z,68.91
2017-07-09T06:58:45.171Z,68.16
2017-07-09T07:01:12.666Z,68.19
2017-07-09T07:03:40.128Z,68.26
2017-07-09T07:06:07.628Z,67.67
2017-07-09T07:08:35.085Z,66.56
2017-07-09T07:11:02.583Z,66.38
2017-07-09T07:13:30.231Z,66.04
2017-07-09T07:15:57.709Z,65.71
2017-07-09T07:18:25.167Z,66.24
2017-07-09T07:20:52.657Z,65.86
2017-07-09T07:23:20.138Z,65.87
2017-07-09T07:25:47.610Z,64.49
2017-07-09T07:28:15.090Z,63.53
2017-07-09T07:30:42.586Z,62.46
2017-07-09T07:33:10.047Z,63.06
2017-07-09T07:35:37.530Z,63.09
2017-07-09T07:38:05.048Z,62.17
2017-07-09T07:40:32.512Z,61.45
2017-07-09T07:42:59.975Z,61.94
2017-07-09T07:45:27.453Z,61.58
2017-07-09T07:47:54.923Z,61.32
2017-07-09T07:50:22.405Z,60.44
2017-07-09T07:52:49.882Z,61.63
2017-07-09T07:55:17.370Z,61.74
2017-07-09T07:57:44.873Z,61.82
2017-07-09T08:00:12.334Z,61.61
2017-07-09T08:02:39.802Z,60.50
2017-07-09T08:05:07.307Z,60.79
2017-07-09T08:07:34.778Z,60.17
2017-07-09T08:10:02.283Z,59.73
2017-07-09T08:12:29.740Z,58.71
2017-07-09T08:14:57.218Z,58.31
2017-07-09T08:17:24.679Z,58.44
2017-07-09T08:19:52.183Z,58.17
2017-07-09T08:22:19.641Z,56.86
2017-07-09T08:24:47.110Z,56.76
2017-07-09T08:27:14.598Z,55.33
2017-07-09T08:29:42.057Z,55.28
2017-07-09T08:32:09.527Z,52.88
2017-07-09T08:34:37.003Z,52.56
2017-07-09T08:37:04.487Z,52.84
2017-07-09T08:39:31.945Z,51.24
2017-07-09T08:41:59.443Z,50.15
2017-07-09T08:44:26.914Z,48.26
2017-07-09T08:46:54.403Z,49.44
2017-07-09T08:49:21.880Z,50.32
2017-07-09T08:51:49.391Z,51.18
2017-07-09T08:54:16.858Z,47.14
2017-07-09T08:56:44.310Z,48.15
2017-07-09T08:59:11.786Z,50.63
2017-07-09T09:01:39.238Z,52.11
2017-07-09T09:04:06.727Z,51.69
2017-07-09T09:06:34.183Z,52.43
2017-07-09T09:09:01.639Z,51.24
2017-07-09T09:11:29.140Z,51.39
2017-07-09T09:13:56.614Z,51.54
2017-07-09T09:16:24.068Z,51.20
2017-07-09T09:18:51.572Z,51.26
2017-07-09T09:21:19.037Z,50.74
2017-07-09T09:23:46.498Z,49.27
2017-07-09T09:26:13.978Z,49.07
2017-07-09T09:28:41.428Z,50.29
2017-07-09T09:31:08.911Z,52.19
2017-07-09T09:33:36.373Z,52.84
2017-07-09T09:36:03.854Z,51.79
2017-07-09T09:38:31.345Z,49.43
2017-07-09T09:40:58.838Z,49.30
2017-07-09T09:43:26.315Z,48.92
2017-07-09T09:45:53.796Z,48.66
2017-07-09T09:48:21.302Z,49.00
2017-07-09T09:50:48.772Z,49.26
2017-07-09T09:53:16.238Z,48.85
2017-07-09T10:02:26.948Z,46.06
2017-07-09T10:04:54.410Z,46.96
2017-07-09T10:07:21.899Z,44.06
2017-07-09T10:09:49.410Z,44.99
2017-07-09T10:12:16.873Z,48.21
2017-07-09T10:14:44.326Z,46.78
2017-07-09T10:17:11.826Z,48.29
2017-07-09T10:19:39.286Z,48.01
2017-07-09T10:22:06.775Z,49.01
2017-07-09T10:24:34.238Z,46.94
2017-07-09T10:27:01.742Z,48.29
2017-07-09T10:29:29.227Z,48.96
2017-07-09T10:31:56.706Z,48.45
2017-07-09T10:34:24.210Z,48.13
2017-07-09T10:36:51.719Z,45.87
2017-07-09T10:39:19.178Z,45.46
2017-07-09T10:41:46.691Z,43.94
2017-07-09T10:44:14.149Z,44.59
2017-07-09T10:46:41.607Z,43.85
2017-07-09T10:49:09.101Z,43.40
2017-07-09T10:51:36.703Z,44.59
2017-07-09T10:54:04.154Z,44.11
2017-07-09T10:56:31.614Z,45.75
2017-07-09T10:58:59.110Z,46.09
2017-07-09T11:01:26.594Z,47.09
2017-07-09T11:03:54.042Z,47.37
2017-07-09T11:06:21.761Z,48.04
2017-07-09T11:08:49.273Z,47.41
2017-07-09T11:11:16.687Z,48.23
2017-07-09T11:13:44.166Z,48.10
2017-07-09T11:16:11.623Z,47.84
2017-07-09T11:18:39.107Z,48.53
2017-07-09T11:21:06.599Z,48.16
2017-07-09T11:23:34.064Z,50.07
2017-07-09T11:26:01.548Z,52.12
2017-07-09T11:28:29.019Z,50.49
2017-07-09T11:30:56.479Z,51.09
2017-07-09T11:33:24.166Z,51.84
2017-07-09T11:35:51.631Z,53.26
2017-07-09T11:38:19.094Z,52.00
2017-07-09T11:40:46.802Z,52.88
2017-07-09T11:43:14.255Z,55.01
2017-07-09T11:45:41.711Z,53.89
2017-07-09T11:48:09.183Z,53.74
2017-07-09T11:50:36.946Z,54.14
2017-07-09T11:53:04.404Z,53.59
2017-07-09T11:55:31.884Z,55.30
2017-07-09T11:57:59.358Z,55.02
2017-07-09T12:00:26.845Z,54.97
2017-07-09T12:02:54.568Z,55.57
2017-07-09T12:05:22.042Z,55.38
2017-07-09T12:07:49.503Z,54.83
2017-07-09T12:10:16.985Z,54.08
2017-07-09T12:12:44.446Z,55.85
2017-07-09T12:15:11.927Z,56.86
2017-07-09T12:17:39.379Z,55.59
2017-07-09T12:20:06.870Z,55.51
2017-07-09T12:22:34.330Z,55.29
2017-07-09T12:25:01.789Z,55.96
2017-07-09T12:27:29.241Z,56.29
2017-07-09T12:29:56.719Z,55.35
2017-07-09T12:32:24.165Z,53.41
2017-07-09T12:34:51.648Z,50.70
2017-07-09T12:37:19.133Z,51.31
2017-07-09T12:39:46.590Z,50.16
2017-07-09T12:42:14.077Z,49.92
2017-07-09T12:44:41.531Z,45.62
2017-07-09T12:47:08.988Z,45.09
2017-07-09T12:49:36.463Z,42.20
2017-07-09T12:52:03.915Z,40.67
2017-07-09T12:54:31.523Z,44.60
2017-07-09T12:56:58.978Z,50.02
2017-07-09T12:59:26.433Z,43.96
2017-07-09T13:01:53.904Z,44.88
2017-07-09T13:04:21.364Z,45.53
2017-07-09T13:06:48.868Z,45.93
2017-07-09T13:09:16.329Z,44.87
2017-07-09T13:11:43.812Z,43.19
2017-07-09T13:14:11.273Z,45.20
2017-07-09T13:16:38.839Z,45.64
2017-07-09T13:19:06.293Z,44.36
2017-07-09T13:21:33.898Z,46.54
2017-07-09T13:24:01.378Z,44.44
2017-07-09T13:26:28.861Z,44.22
2017-07-09T13:28:56.585Z,41.68
2017-07-09T13:31:24.044Z,42.11
2017-07-09T13:33:51.507Z,42.91
2017-07-09T13:36:18.994Z,40.88
2017-07-09T13:38:46.448Z,40.10
2017-07-09T13:41:14.190Z,38.67
2017-07-09T13:43:41.656Z,35.82
2017-07-09T13:46:09.110Z,33.88
2017-07-09T13:48:36.591Z,33.08
2017-07-09T13:51:04.047Z,35.55
2017-07-09T13:53:31.506Z,30.22
2017-07-09T13:55:58.987Z,31.69
2017-07-09T13:58:26.444Z,34.63
2017-07-09T14:00:54.175Z,33.43
2017-07-09T14:03:21.639Z,33.10
2017-07-09T14:05:49.098Z,33.56
2017-07-09T14:08:16.588Z,30.13
2017-07-09T14:10:44.054Z,32.63
2017-07-09T14:13:11.535Z,33.21
2017-07-09T14:15:39.002Z,33.39
2017-07-09T14:18:06.463Z,38.77
2017-07-09T14:20:33.947Z,33.48
2017-07-09T14:23:01.417Z,34.68
2017-07-09T14:25:29.087Z,35.36
2017-07-09T14:27:56.541Z,29.07
2017-07-09T14:30:24.018Z,31.58
2017-07-09T14:32:51.495Z,32.80
2017-07-09T14:35:18.947Z,32.65
2017-07-09T14:37:46.428Z,33.22
2017-07-09T14:40:13.899Z,32.23
2017-07-09T14:42:41.350Z,34.61
2017-07-09T14:45:09.061Z,29.89
2017-07-09T14:47:36.520Z,32.81
2017-07-09T14:50:03.975Z,24.63
2017-07-09T14:52:31.613Z,27.01
2017-07-09T14:54:59.074Z,28.79
2017-07-09T14:57:26.527Z,32.69
2017-07-09T14:59:54.127Z,31.68
2017-07-09T15:02:21.583Z,29.06
2017-07-09T15:04:49.043Z,29.39
2017-07-09T15:07:16.811Z,27.56
2017-07-09T15:09:44.274Z,28.33
2017-07-09T15:12:11.757Z,28.92
2017-07-09T15:14:39.244Z,24.61
2017-07-09T15:17:06.739Z,27.36
2017-07-09T15:19:34.230Z,28.51
2017-07-09T15:22:01.706Z,25.26
2017-07-09T15:24:29.165Z,27.46
2017-07-09T15:26:56.646Z,27.80
2017-07-09T15:29:24.204Z,30.68
2017-07-09T15:31:51.684Z,27.72
2017-07-09T15:34:19.269Z,29.01
2017-07-09T15:36:46.737Z,26.16
2017-07-09T15:39:14.224Z,24.52
2017-07-09T15:41:41.691Z,25.92
2017-07-09T15:44:09.198Z,26.13
2017-07-09T15:46:36.642Z,25.11
2017-07-09T15:49:04.127Z,27.04
2017-07-09T15:51:31.622Z,28.43
2017-07-09T15:53:59.074Z,27.49
2017-07-09T15:56:26.540Z,27.95
2017-07-09T15:58:54.021Z,30.90
2017-07-09T16:01:21.471Z,30.80
2017-07-09T16:03:48.967Z,32.09
2017-07-09T16:06:16.422Z,32.22
2017-07-09T16:08:43.894Z,28.58
2017-07-09T16:11:11.382Z,31.27
2017-07-09T16:13:38.847Z,33.23
2017-07-09T16:16:06.333Z,33.43
2017-07-09T16:18:33.786Z,32.17
2017-07-09T16:21:01.279Z,33.73
2017-07-09T16:23:28.766Z,33.33
2017-07-09T16:25:56.232Z,33.49
2017-07-09T16:28:23.692Z,33.86
2017-07-09T16:30:51.158Z,34.31
2017-07-09T16:33:18.634Z,34.83
2017-07-09T16:35:46.103Z,35.82
2017-07-09T16:38:13.565Z,31.84
2017-07-09T16:40:41.068Z,32.70
2017-07-09T16:43:08.517Z,33.72
2017-07-09T16:45:35.977Z,32.55
2017-07-09T16:48:03.453Z,31.96
2017-07-09T16:50:30.928Z,33.81
2017-07-09T16:52:58.418Z,34.59
2017-07-09T16:55:25.886Z,35.59
2017-07-09T16:57:53.375Z,38.16
2017-07-09T17:00:20.843Z,38.55
2017-07-09T17:02:48.321Z,40.07
2017-07-09T17:05:15.797Z,40.74
2017-07-09T17:07:43.251Z,41.94
2017-07-09T17:10:10.758Z,41.37
2017-07-09T17:12:38.227Z,41.92
2017-07-09T17:15:05.702Z,42.68
2017-07-09T17:17:33.162Z,42.13
2017-07-09T17:20:00.686Z,43.48
2017-07-09T17:22:28.145Z,43.97
2017-07-09T17:24:55.617Z,45.48
2017-07-09T17:27:23.105Z,46.02
2017-07-09T17:29:50.568Z,46.24
2017-07-09T17:32:18.043Z,46.72
2017-07-09T17:34:45.503Z,44.33
2017-07-09T17:37:12.997Z,45.63
2017-07-09T17:39:40.447Z,47.39
2017-07-09T17:42:07.897Z,45.71
2017-07-09T17:44:35.391Z,46.18
2017-07-09T17:47:02.850Z,46.38
2017-07-09T17:49:30.364Z,48.02
2017-07-09T17:51:57.830Z,47.51
2017-07-09T17:54:25.295Z,49.55
2017-07-09T17:56:52.875Z,49.27
2017-07-09T17:59:20.331Z,49.86
2017-07-09T18:01:47.798Z,48.72
2017-07-09T18:04:15.271Z,47.41
2017-07-09T18:06:42.782Z,47.60
2017-07-09T18:09:10.279Z,48.70
2017-07-09T18:11:38.150Z,46.97
2017-07-09T18:14:05.602Z,46.81
2017-07-09T18:16:33.070Z,47.95
2017-07-09T18:19:00.558Z,48.07
2017-07-09T18:21:28.031Z,47.29
2017-07-09T18:23:55.758Z,47.60
2017-07-09T18:26:23.207Z,47.95
2017-07-09T18:28:50.728Z,48.16
2017-07-09T18:31:18.210Z,47.91
2017-07-09T18:33:45.680Z,47.76
2017-07-09T18:36:13.376Z,48.52
2017-07-09T18:38:40.843Z,49.00
2017-07-09T18:41:08.298Z,50.05
2017-07-09T18:43:35.799Z,51.30
2017-07-09T18:46:03.281Z,53.36
2017-07-09T18:48:30.742Z,54.99
2017-07-09T18:50:58.222Z,56.97
2017-07-09T18:53:25.738Z,58.96
2017-07-09T18:55:53.205Z,63.37
2017-07-09T18:58:20.678Z,68.01
2017-07-09T19:00:48.156Z,77.23
2017-07-09T19:03:15.614Z,81.12
2017-07-09T19:05:43.207Z,83.77
2017-07-09T19:08:10.673Z,84.56
2017-07-09T19:10:38.164Z,81.78
2017-07-09T19:13:05.701Z,83.21
2017-07-09T19:15:33.170Z,82.69
2017-07-09T19:18:00.717Z,83.84
2017-07-09T19:20:28.205Z,84.88
2017-07-09T19:22:55.680Z,84.82
2017-07-09T19:25:23.215Z,86.31
2017-07-09T19:27:50.749Z,85.60
2017-07-09T19:30:18.264Z,87.15
2017-07-09T19:32:45.780Z,88.37
2017-07-09T19:35:13.648Z,88.94
2017-07-09T19:37:41.142Z,91.26
2017-07-09T19:40:08.794Z,91.11
2017-07-09T19:42:36.309Z,91.38
2017-07-09T19:45:03.790Z,92.15
2017-07-09T19:47:31.590Z,92.25
2017-07-09T19:49:59.254Z,91.45
2017-07-09T19:52:26.873Z,90.50
2017-07-09T19:54:54.395Z,90.05
2017-07-09T19:57:21.899Z,90.83
2017-07-09T19:59:49.400Z,90.26
2017-07-09T20:02:16.884Z,89.96
2017-07-09T20:04:44.378Z,90.02
2017-07-09T20:07:12.213Z,90.98
2017-07-09T20:09:39.704Z,91.19
2017-07-09T20:12:07.248Z,91.67
2017-07-09T20:14:34.722Z,90.58
2017-07-09T20:17:03.091Z,90.90
2017-07-09T20:19:30.578Z,91.51
2017-07-09T20:21:58.057Z,91.04
2017-07-09T20:24:25.543Z,89.70
2017-07-09T20:26:53.043Z,90.14
2017-07-09T20:29:20.500Z,90.54
2017-07-09T20:31:47.959Z,92.01
2017-07-09T20:34:15.450Z,92.10
2017-07-09T20:36:42.916Z,91.04
2017-07-09T20:39:10.403Z,90.91
2017-07-09T20:41:37.874Z,91.35
2017-07-09T20:44:05.364Z,92.14
2017-07-09T20:46:32.822Z,91.50
2017-07-09T20:49:00.488Z,90.97
2017-07-09T20:51:27.986Z,93.07
2017-07-09T20:53:55.767Z,93.43
2017-07-09T20:56:23.505Z,93.90
2017-07-09T20:58:50.969Z,93.88
2017-07-09T21:01:18.434Z,94.18
2017-07-09T21:03:46.196Z,94.10
2017-07-09T21:06:13.664Z,93.58
2017-07-09T21:08:41.119Z,94.11
2017-07-09T21:11:08.606Z,94.01
2017-07-09T21:13:36.073Z,93.22
2017-07-09T21:16:03.654Z,93.72
2017-07-09T21:18:31.107Z,94.26
2017-07-09T21:20:58.585Z,93.41
2017-07-09T21:23:26.073Z,93.62
2017-07-09T21:25:53.543Z,94.29
2017-07-09T21:28:21.015Z,94.47
2017-07-09T21:30:48.510Z,94.67
2017-07-09T21:33:16.314Z,93.81
2017-07-09T21:35:43.769Z,94.30
2017-07-09T21:38:11.234Z,93.53
2017-07-09T21:40:38.714Z,93.07
2017-07-09T21:43:06.205Z,94.08
2017-07-09T21:45:33.670Z,94.81
2017-07-09T21:48:01.158Z,95.33
2017-07-09T21:50:28.643Z,94.93
2017-07-09T21:52:56.115Z,94.07
2017-07-09T21:55:23.596Z,93.93
2017-07-09T21:57:51.087Z,93.93
2017-07-09T22:00:18.583Z,94.56
2017-07-09T22:02:46.046Z,94.12
2017-07-09T22:05:13.549Z,93.80
2017-07-09T22:07:41.023Z,94.06
2017-07-09T22:10:08.497Z,94.39
2017-07-09T22:12:35.959Z,93.13
2017-07-09T22:15:03.754Z,93.45
2017-07-09T22:17:31.220Z,93.69
2017-07-09T22:19:58.682Z,93.12
2017-07-09T22:22:26.166Z,92.92
2017-07-09T22:24:53.627Z,92.28
2017-07-09T22:27:21.108Z,92.59
2017-07-09T22:29:48.596Z,92.72
2017-07-09T22:32:16.051Z,92.51
2017-07-09T22:34:43.547Z,93.54
2017-07-09T22:37:11.159Z,92.48
2017-07-09T22:39:38.618Z,92.41
2017-07-09T22:42:06.083Z,92.92
2017-07-09T22:44:33.595Z,92.88
2017-07-09T22:47:01.057Z,92.86
2017-07-09T22:49:28.513Z,92.28
2017-07-09T22:51:55.989Z,91.92
2017-07-09T22:54:23.471Z,92.76
2017-07-09T22:56:50.937Z,91.25
2017-07-09T22:59:18.422Z,91.52
2017-07-09T23:01:45.883Z,91.26
2017-07-09T23:04:13.366Z,91.57
2017-07-09T23:06:40.843Z,91.61
2017-07-09T23:09:08.337Z,90.75
2017-07-09T23:11:35.828Z,90.60
2017-07-09T23:14:03.279Z,91.00
2017-07-09T23:16:30.761Z,90.77
2017-07-09T23:18:58.229Z,90.73
2017-07-09T23:21:25.731Z,91.27
2017-07-09T23:23:53.188Z,90.76
2017-07-09T23:26:20.651Z,91.60
2017-07-09T23:28:48.146Z,93.38
2017-07-09T23:31:15.631Z,94.52
2017-07-09T23:33:43.138Z,94.27
2017-07-09T23:36:10.603Z,94.66
2017-07-09T23:38:38.063Z,94.11
2017-07-09T23:41:05.561Z,94.22
2017-07-09T23:43:33.038Z,94.65
2017-07-09T23:46:00.497Z,94.00
2017-07-09T23:48:27.977Z,94.05
2017-07-09T23:50:55.466Z,93.57
2017-07-09T23:53:22.951Z,93.62
2017-07-09T23:55:50.415Z,93.63
2017-07-09T23:58:17.895Z,94.78
